Time;durP1;ratioP1;P1;durP2;ratioP2;P2;SDS_P1;SDS_P2;PMS_P1;PMS_P2;Temp;Humidity;BMP_temperature;BMP_pressure;BME280_temperature;BME280_humidity;BME280_pressure;Samples;Min_cycle;Max_cycle;Signal;HPM_P1;HPM_P2
2021/03/22 00:01:44;;;;;;;32.20;4.93;;;4.40;92.60;;;;;;4997989;28;20664;-84
2021/03/22 00:04:10;;;;;;;30.88;4.63;;;4.50;92.60;;;;;;5002068;28;20388;-84
2021/03/22 00:06:35;;;;;;;33.22;4.95;;;4.50;92.70;;;;;;4996559;28;20041;-81
2021/03/22 00:09:02;;;;;;;33.00;5.15;;;4.50;92.70;;;;;;5000540;28;20038;-80
2021/03/22 00:11:28;;;;;;;33.63;5.15;;;4.50;92.70;;;;;;5015406;28;20116;-81
2021/03/22 00:13:53;;;;;;;29.20;5.53;;;4.60;92.70;;;;;;5000018;28;20030;-82
2021/03/22 00:16:19;;;;;;;38.67;5.32;;;4.60;92.70;;;;;;4995478;28;20155;-82
2021/03/22 00:18:45;;;;;;;27.80;4.57;;;4.60;92.70;;;;;;4984371;28;20034;-81
2021/03/22 00:21:14;;;;;;;30.38;5.40;;;4.60;92.70;;;;;;5014698;28;20113;-81
2021/03/22 00:23:40;;;;;;;40.70;6.65;;;4.60;92.70;;;;;;5013034;28;20037;-82
2021/03/22 00:26:07;;;;;;;28.63;5.25;;;4.70;92.80;;;;;;4995223;28;20340;-81
2021/03/22 00:28:43;;;;;;;38.75;5.20;;;4.70;92.80;;;;;;5012271;28;20344;-81
2021/03/22 00:31:12;;;;;;;36.88;5.57;;;4.70;92.90;;;;;;5011000;28;20396;-81
2021/03/22 00:33:38;;;;;;;26.60;5.40;;;4.70;92.80;;;;;;5011606;28;20042;-81
2021/03/22 00:36:06;;;;;;;37.55;7.07;;;4.80;92.90;;;;;;5010842;28;20030;-83
2021/03/22 00:38:32;;;;;;;33.83;6.78;;;4.80;92.90;;;;;;4995454;28;20475;-83
2021/03/22 00:40:58;;;;;;;44.83;6.82;;;4.80;92.90;;;;;;5017836;28;20034;-82
2021/03/22 00:43:25;;;;;;;31.38;6.72;;;4.80;92.90;;;;;;5000194;28;20428;-81
2021/03/22 00:45:53;;;;;;;42.55;7.18;;;4.80;93.00;;;;;;5014150;28;20494;-82
2021/03/22 00:48:19;;;;;;;33.60;6.15;;;4.80;93.30;;;;;;5010100;28;20510;-84
2021/03/22 00:50:45;;;;;;;29.92;6.28;;;4.80;93.00;;;;;;5011449;28;20535;-83
2021/03/22 00:53:13;;;;;;;36.10;6.78;;;4.80;93.00;;;;;;4996453;28;20082;-83
2021/03/22 00:55:40;;;;;;;35.08;6.53;;;4.80;93.00;;;;;;5011730;28;20041;-82
2021/03/22 00:58:06;;;;;;;37.67;7.13;;;4.90;93.00;;;;;;4995780;28;20033;-83
2021/03/22 01:00:37;;;;;;;32.17;6.90;;;4.90;93.00;;;;;;4984286;28;20049;-81
2021/03/22 01:03:05;;;;;;;42.58;7.03;;;4.90;93.00;;;;;;5026043;28;20577;-81
2021/03/22 01:05:32;;;;;;;34.38;6.43;;;4.90;93.10;;;;;;5008014;28;20041;-83
2021/03/22 01:07:57;;;;;;;33.72;6.97;;;4.90;93.00;;;;;;5002268;28;20207;-83
2021/03/22 01:10:23;;;;;;;34.55;6.85;;;4.90;93.00;;;;;;5011750;28;20037;-81
2021/03/22 01:12:49;;;;;;;38.75;7.47;;;4.90;93.10;;;;;;5008906;28;20038;-85
2021/03/22 01:15:15;;;;;;;33.47;7.05;;;5.00;93.10;;;;;;4997010;28;20191;-83
2021/03/22 01:17:41;;;;;;;36.90;7.50;;;5.00;93.10;;;;;;4997039;28;20040;-82
2021/03/22 01:20:14;;;;;;;41.75;7.63;;;5.00;93.10;;;;;;4996980;28;20042;-84
2021/03/22 01:22:40;;;;;;;28.83;6.38;;;5.00;93.10;;;;;;5020196;28;20044;-80
2021/03/22 01:25:08;;;;;;;33.88;7.68;;;5.00;93.10;;;;;;4989134;28;20468;-80
2021/03/22 01:27:37;;;;;;;35.25;7.47;;;5.00;93.10;;;;;;5019229;28;20044;-83
2021/03/22 01:30:11;;;;;;;34.65;7.18;;;5.00;93.40;;;;;;5028359;28;20079;-82
2021/03/22 01:32:37;;;;;;;33.40;7.32;;;5.00;93.10;;;;;;5016165;28;21502;-81
2021/03/22 01:35:06;;;;;;;39.67;8.05;;;5.00;93.10;;;;;;5017869;28;20052;-81
2021/03/22 01:37:32;;;;;;;37.35;7.93;;;5.10;93.10;;;;;;5001565;28;20087;-82
2021/03/22 01:39:58;;;;;;;36.30;8.20;;;5.10;93.10;;;;;;4981167;28;20466;-85
2021/03/22 01:42:52;;;;;;;38.72;7.60;;;5.10;93.10;;;;;;5002117;28;20077;-83
2021/03/22 01:45:17;;;;;;;34.90;8.65;;;5.10;93.10;;;;;;5030627;28;20423;-82
2021/03/22 01:47:44;;;;;;;38.47;7.88;;;5.10;93.40;;;;;;5002340;28;20048;-81
2021/03/22 01:50:21;;;;;;;41.50;7.63;;;5.20;93.10;;;;;;4989738;28;20508;-82
2021/03/22 01:52:50;;;;;;;36.42;6.88;;;5.10;93.10;;;;;;5021117;28;20625;-82
2021/03/22 01:55:18;;;;;;;36.20;7.70;;;5.20;93.10;;;;;;5018975;28;20037;-82
2021/03/22 01:57:46;;;;;;;30.42;6.72;;;5.20;93.10;;;;;;5021093;28;20821;-81
2021/03/22 02:00:20;;;;;;;41.00;8.10;;;5.20;93.10;;;;;;5029485;28;20037;-82
2021/03/22 02:02:48;;;;;;;42.55;8.10;;;5.20;93.10;;;;;;5024502;28;20029;-85
2021/03/22 02:05:18;;;;;;;31.73;6.85;;;5.20;93.00;;;;;;5022717;28;20044;-81
2021/03/22 02:07:47;;;;;;;35.08;7.18;;;5.20;93.00;;;;;;5016081;28;20060;-81
2021/03/22 02:10:13;;;;;;;31.15;7.38;;;5.20;93.00;;;;;;5022337;28;20508;-81
2021/03/22 02:12:39;;;;;;;30.60;6.70;;;5.20;92.90;;;;;;5017364;28;20092;-83
2021/03/22 02:15:06;;;;;;;34.70;6.80;;;5.30;92.90;;;;;;4986119;28;20728;-81
2021/03/22 02:18:07;;;;;;;37.83;7.50;;;5.30;92.90;;;;;;5003905;28;20042;-82
2021/03/22 02:20:55;;;;;;;27.13;6.60;;;5.30;92.90;;;;;;5015732;28;20053;-82
2021/03/22 02:23:51;;;;;;;25.63;5.88;;;5.30;92.90;;;;;;5017717;28;20426;-80
2021/03/22 02:26:41;;;;;;;36.15;6.55;;;5.30;92.90;;;;;;5022490;28;20043;-84
2021/03/22 02:29:30;;;;;;;29.85;6.45;;;5.30;92.80;;;;;;5022608;28;20156;-80
2021/03/22 02:32:09;;;;;;;25.55;5.32;;;5.30;92.80;;;;;;5021832;28;20043;-80
2021/03/22 02:34:41;;;;;;;30.50;5.95;;;5.30;92.70;;;;;;5016712;28;20129;-84
2021/03/22 02:37:31;;;;;;;29.52;5.95;;;5.40;92.70;;;;;;5028872;28;20121;-82
2021/03/22 02:40:35;;;;;;;28.15;5.43;;;5.30;92.70;;;;;;5001909;28;20049;-83
2021/03/22 02:43:03;;;;;;;24.40;5.00;;;5.30;92.70;;;;;;5012943;28;20095;-81
2021/03/22 02:45:36;;;;;;;28.52;5.60;;;5.30;92.70;;;;;;5016979;28;20916;-80
2021/03/22 02:48:03;;;;;;;;;;;5.30;92.70;;;;;;5016267;28;20064;-83
2021/03/22 02:50:36;;;;;;;33.47;5.05;;;5.30;92.70;;;;;;5014756;28;20013;-81
2021/03/22 02:53:37;;;;;;;33.38;5.43;;;5.30;92.80;;;;;;5031584;28;20033;-80
2021/03/22 02:56:22;;;;;;;26.63;5.00;;;5.30;92.80;;;;;;5017627;28;20060;-81
2021/03/22 02:59:00;;;;;;;29.50;5.30;;;5.30;92.90;;;;;;5024955;28;20044;-80
2021/03/22 03:01:39;;;;;;;32.20;5.35;;;5.30;92.90;;;;;;5032728;28;20037;-80
2021/03/22 03:04:10;;;;;;;31.85;5.88;;;5.30;93.00;;;;;;5021963;28;20411;-82
2021/03/22 03:06:43;;;;;;;38.70;5.60;;;5.20;93.00;;;;;;5024683;28;20510;-81
2021/03/22 03:09:09;;;;;;;27.75;6.18;;;5.20;93.10;;;;;;5014385;28;20374;-81
2021/03/22 03:11:35;;;;;;;37.22;6.20;;;5.20;93.10;;;;;;5015910;28;20048;-79
2021/03/22 03:14:01;;;;;;;26.92;5.38;;;5.20;93.20;;;;;;5014365;28;20042;-82
2021/03/22 03:16:27;;;;;;;35.90;5.60;;;5.20;93.30;;;;;;4996781;28;20025;-80
2021/03/22 03:18:53;;;;;;;30.80;5.63;;;5.20;93.50;;;;;;5014645;28;20290;-79
2021/03/22 03:21:18;;;;;;;28.25;5.00;;;5.20;93.50;;;;;;5015907;28;20099;-79
2021/03/22 03:23:44;;;;;;;23.63;5.05;;;5.10;93.50;;;;;;5000226;28;20047;-83
2021/03/22 03:26:10;;;;;;;30.13;5.75;;;5.10;93.50;;;;;;5017126;28;20030;-80
2021/03/22 03:28:36;;;;;;;29.42;5.55;;;5.10;93.50;;;;;;5011021;28;20053;-80
2021/03/22 03:31:02;;;;;;;24.85;4.68;;;5.20;93.60;;;;;;5012349;28;20274;-79
2021/03/22 03:33:27;;;;;;;26.88;4.30;;;5.10;93.60;;;;;;5011257;28;21362;-80
2021/03/22 03:35:53;;;;;;;29.13;4.45;;;5.10;93.60;;;;;;5011075;28;20152;-83
2021/03/22 03:38:19;;;;;;;18.58;3.78;;;5.10;93.70;;;;;;5003091;28;20026;-80
2021/03/22 03:40:47;;;;;;;24.98;4.25;;;5.10;93.70;;;;;;4994387;28;20033;-82
2021/03/22 03:43:14;;;;;;;25.27;3.88;;;5.10;93.70;;;;;;5012264;28;20124;-80
2021/03/22 03:45:42;;;;;;;22.75;3.88;;;5.10;93.70;;;;;;5012390;28;20057;-80
2021/03/22 03:48:11;;;;;;;27.17;3.78;;;5.10;93.70;;;;;;5010057;28;20063;-78
2021/03/22 03:50:37;;;;;;;19.48;3.08;;;5.10;93.70;;;;;;5013787;28;20041;-81
2021/03/22 03:53:03;;;;;;;15.90;3.13;;;5.10;93.70;;;;;;4999557;28;20038;-80
2021/03/22 03:55:30;;;;;;;21.05;3.08;;;5.10;93.70;;;;;;4984007;28;20687;-81
2021/03/22 03:57:57;;;;;;;17.52;3.15;;;5.10;93.70;;;;;;5017968;28;20037;-81
2021/03/22 04:00:26;;;;;;;26.42;3.08;;;5.10;93.70;;;;;;5014838;28;20041;-81
2021/03/22 04:02:53;;;;;;;18.23;3.30;;;5.10;93.70;;;;;;5014648;28;20060;-81
2021/03/22 04:05:20;;;;;;;19.80;3.05;;;5.10;93.80;;;;;;5014271;28;20037;-82
2021/03/22 04:07:46;;;;;;;24.55;3.30;;;5.00;93.80;;;;;;5000750;28;20297;-81
2021/03/22 04:10:13;;;;;;;26.05;3.92;;;5.00;93.80;;;;;;5016238;28;20041;-81
2021/03/22 04:12:39;;;;;;;10.82;2.40;;;5.00;93.80;;;;;;5001575;28;20051;-80
2021/03/22 04:15:13;;;;;;;15.70;2.35;;;5.10;93.80;;;;;;5016928;28;20040;-81
2021/03/22 04:17:39;;;;;;;14.18;2.72;;;5.00;93.80;;;;;;5016373;28;20033;-81
2021/03/22 04:20:06;;;;;;;20.92;3.22;;;5.00;93.80;;;;;;4999885;28;20465;-82
2021/03/22 04:22:32;;;;;;;18.08;2.67;;;5.00;93.90;;;;;;5017416;28;20037;-84
2021/03/22 04:24:58;;;;;;;15.70;3.67;;;5.00;93.90;;;;;;5017036;28;20045;-80
2021/03/22 04:27:24;;;;;;;20.23;2.80;;;5.00;93.90;;;;;;5001944;28;20041;-81
2021/03/22 04:29:49;;;;;;;20.27;2.58;;;5.00;93.90;;;;;;4998847;28;20041;-81
2021/03/22 04:32:15;;;;;;;17.10;2.95;;;5.00;93.90;;;;;;5017037;28;20069;-80
2021/03/22 04:34:41;;;;;;;14.35;2.63;;;5.00;94.00;;;;;;4998467;28;20060;-80
2021/03/22 04:37:08;;;;;;;19.98;3.10;;;5.00;93.90;;;;;;4984597;28;20455;-82
2021/03/22 04:39:35;;;;;;;23.60;2.97;;;5.00;94.00;;;;;;5017807;28;20041;-80
2021/03/22 04:42:01;;;;;;;25.10;3.30;;;4.90;94.30;;;;;;5015362;28;20037;-81
2021/03/22 04:44:26;;;;;;;24.55;2.78;;;4.90;94.10;;;;;;5016644;28;20040;-80
2021/03/22 04:46:52;;;;;;;14.93;2.10;;;4.90;94.00;;;;;;5000313;28;20041;-81
2021/03/22 04:49:18;;;;;;;21.88;3.28;;;4.90;94.10;;;;;;4981343;28;20046;-80
2021/03/22 04:51:44;;;;;;;15.73;2.50;;;4.90;94.10;;;;;;5014630;28;20207;-80
2021/03/22 04:54:10;;;;;;;20.15;3.08;;;5.00;94.20;;;;;;4997256;28;20037;-80
2021/03/22 04:56:35;;;;;;;18.67;3.55;;;4.90;94.20;;;;;;5015610;28;20038;-81
2021/03/22 04:59:02;;;;;;;16.17;3.47;;;4.90;94.20;;;;;;5014639;28;20033;-81
2021/03/22 05:01:28;;;;;;;24.23;3.33;;;4.90;94.20;;;;;;5004231;28;20042;-82
2021/03/22 05:03:54;;;;;;;13.80;2.70;;;4.90;94.30;;;;;;5015815;28;20165;-79
2021/03/22 05:06:20;;;;;;;12.18;2.50;;;5.00;94.30;;;;;;5006861;28;20072;-81
2021/03/22 05:08:46;;;;;;;25.98;2.60;;;4.90;94.30;;;;;;5000597;28;20036;-80
2021/03/22 05:11:12;;;;;;;16.42;2.90;;;4.90;94.30;;;;;;5017166;28;20270;-80
2021/03/22 05:13:38;;;;;;;18.75;3.15;;;4.90;94.30;;;;;;5022374;28;20029;-80
2021/03/22 05:16:04;;;;;;;20.50;2.85;;;4.90;94.30;;;;;;4988028;28;20034;-79
2021/03/22 05:18:31;;;;;;;14.43;2.75;;;4.90;94.60;;;;;;5018099;28;20034;-80
2021/03/22 05:20:59;;;;;;;25.33;3.42;;;4.80;94.30;;;;;;5019037;28;20510;-80
2021/03/22 05:23:27;;;;;;;17.55;2.70;;;4.90;94.30;;;;;;5017865;28;20500;-81
2021/03/22 05:25:54;;;;;;;17.40;2.65;;;4.90;94.40;;;;;;5018625;28;20045;-80
2021/03/22 05:28:21;;;;;;;16.70;2.58;;;4.80;94.30;;;;;;4998276;28;20030;-82
2021/03/22 05:30:47;;;;;;;13.55;2.20;;;4.80;94.30;;;;;;5014738;28;20140;-82
2021/03/22 05:33:15;;;;;;;18.13;2.90;;;4.80;94.30;;;;;;5012547;28;20366;-82
2021/03/22 05:35:43;;;;;;;16.13;2.80;;;4.80;94.40;;;;;;5013325;28;20038;-79
2021/03/22 05:38:10;;;;;;;14.38;2.50;;;4.80;94.40;;;;;;4996303;28;20037;-80
2021/03/22 05:40:43;;;;;;;12.82;2.30;;;4.80;94.40;;;;;;5012919;28;20047;-80
2021/03/22 05:43:18;;;;;;;12.52;2.38;;;4.80;94.40;;;;;;5013353;28;20049;-80
2021/03/22 05:45:47;;;;;;;18.67;2.47;;;4.80;94.40;;;;;;5016959;28;20452;-83
2021/03/22 05:48:44;;;;;;;20.65;2.35;;;4.80;94.40;;;;;;5011979;28;20565;-81
2021/03/22 05:51:12;;;;;;;20.90;2.50;;;4.80;94.50;;;;;;5015105;28;20449;-80
2021/03/22 05:54:09;;;;;;;19.60;2.60;;;4.80;94.50;;;;;;5014939;28;20042;-81
2021/03/22 05:56:42;;;;;;;15.38;2.42;;;4.80;94.60;;;;;;5013000;28;20472;-80
2021/03/22 05:59:23;;;;;;;15.77;2.33;;;4.90;94.50;;;;;;5015427;28;20164;-80
2021/03/22 06:01:55;;;;;;;19.30;2.80;;;4.80;94.50;;;;;;5013777;28;20064;-80
2021/03/22 06:04:40;;;;;;;17.10;2.95;;;4.80;94.50;;;;;;5030500;28;20046;-82
2021/03/22 06:07:06;;;;;;;11.80;2.28;;;4.90;94.50;;;;;;5017340;28;20034;-80
2021/03/22 06:09:47;;;;;;;20.02;2.75;;;4.90;94.50;;;;;;5017398;28;20053;-80
2021/03/22 06:12:28;;;;;;;17.55;2.97;;;4.90;94.60;;;;;;5019643;28;20342;-80
2021/03/22 06:15:15;;;;;;;21.40;2.80;;;4.90;94.60;;;;;;5016752;28;20040;-80
2021/03/22 06:18:11;;;;;;;17.20;3.20;;;4.90;94.60;;;;;;5009839;28;20033;-82
2021/03/22 06:20:39;;;;;;;15.77;2.85;;;4.90;94.60;;;;;;5021400;28;20384;-80
2021/03/22 06:23:11;;;;;;;19.13;3.20;;;4.90;94.60;;;;;;5016985;28;20272;-79
2021/03/22 06:25:37;;;;;;;22.85;3.03;;;4.90;94.60;;;;;;5018026;28;20041;-80
2021/03/22 06:28:15;;;;;;;13.18;2.95;;;5.00;94.60;;;;;;5019155;28;20049;-80
2021/03/22 06:31:08;;;;;;;14.57;2.72;;;5.00;94.90;;;;;;5013885;28;20037;-80
2021/03/22 06:33:39;;;;;;;14.38;2.88;;;5.00;94.60;;;;;;5019303;28;20041;-83
2021/03/22 06:36:06;;;;;;;21.92;2.70;;;5.00;94.60;;;;;;5017116;28;20088;-80
2021/03/22 06:38:32;;;;;;;10.27;2.70;;;5.00;94.60;;;;;;5002568;28;20054;-80
2021/03/22 06:41:18;;;;;;;13.23;2.55;;;5.00;94.70;;;;;;5000022;28;20085;-79
2021/03/22 06:43:53;;;;;;;18.67;2.70;;;5.10;94.70;;;;;;5017725;28;20033;-80
2021/03/22 06:46:19;;;;;;;16.27;2.80;;;5.10;94.70;;;;;;5020082;28;20025;-81
2021/03/22 06:49:06;;;;;;;11.00;2.42;;;5.10;94.60;;;;;;5018321;28;20478;-82
2021/03/22 06:51:33;;;;;;;15.68;2.70;;;5.10;94.60;;;;;;5023544;28;20034;-79
2021/03/22 06:54:00;;;;;;;18.27;2.58;;;5.10;94.60;;;;;;5016488;28;20033;-80
2021/03/22 06:56:34;;;;;;;10.40;2.22;;;5.20;94.60;;;;;;5018399;28;20041;-80
2021/03/22 06:59:32;;;;;;;21.15;2.67;;;5.20;94.50;;;;;;5018279;28;21104;-80
2021/03/22 07:02:21;;;;;;;11.13;2.33;;;5.20;94.40;;;;;;4982151;28;20133;-80
2021/03/22 07:04:48;;;;;;;13.48;2.83;;;5.20;94.40;;;;;;5031008;28;20052;-82
2021/03/22 07:07:20;;;;;;;14.98;2.55;;;5.30;94.40;;;;;;5022872;28;20034;-81
2021/03/22 07:09:57;;;;;;;13.57;2.28;;;5.30;94.40;;;;;;5023632;28;20230;-81
2021/03/22 07:12:39;;;;;;;13.70;2.08;;;5.30;94.50;;;;;;5031783;28;20451;-80
2021/03/22 07:15:30;;;;;;;16.63;2.65;;;5.40;94.50;;;;;;5007686;28;20049;-83
2021/03/22 07:18:00;;;;;;;9.38;2.05;;;5.40;94.40;;;;;;5019799;28;20373;-80
2021/03/22 07:20:26;;;;;;;15.30;2.47;;;5.40;94.30;;;;;;5018154;28;20049;-81
2021/03/22 07:23:24;;;;;;;16.38;2.42;;;5.40;94.20;;;;;;5017082;28;20158;-81
2021/03/22 07:25:56;;;;;;;7.63;1.65;;;5.40;94.20;;;;;;5015692;28;20060;-82
2021/03/22 07:28:43;;;;;;;15.93;2.50;;;5.50;94.20;;;;;;5019313;28;20037;-82
2021/03/22 07:31:57;;;;;;;13.73;2.28;;;5.50;94.20;;;;;;5021944;28;20041;-80
2021/03/22 07:34:54;;;;;;;11.20;2.63;;;5.50;94.10;;;;;;4970306;28;20221;-80
2021/03/22 07:37:26;;;;;;;16.60;2.42;;;5.60;94.20;;;;;;5017734;28;20034;-80
2021/03/22 07:40:18;;;;;;;17.27;2.57;;;5.60;94.10;;;;;;5018160;28;20029;-80
2021/03/22 07:43:23;;;;;;;15.70;2.20;;;5.60;94.20;;;;;;5027037;28;20057;-82
2021/03/22 07:46:01;;;;;;;13.05;2.22;;;5.70;94.20;;;;;;5018950;28;20087;-83
2021/03/22 07:48:45;;;;;;;12.45;2.03;;;5.80;94.10;;;;;;5020486;28;20091;-83
2021/03/22 07:51:36;;;;;;;12.15;2.38;;;5.80;94.00;;;;;;5019456;28;20452;-84
2021/03/22 07:54:27;;;;;;;10.30;1.85;;;5.90;94.00;;;;;;5027651;28;20503;-82
2021/03/22 07:57:37;;;;;;;8.10;1.90;;;5.90;93.80;;;;;;5020091;28;20045;-81
2021/03/22 08:00:30;;;;;;;8.77;2.00;;;6.00;93.90;;;;;;5018562;28;20037;-81
2021/03/22 08:03:22;;;;;;;;;;;6.20;94.20;;;;;;5024541;28;20229;-81
2021/03/22 08:06:03;;;;;;;11.35;2.17;;;6.20;93.70;;;;;;5017815;28;20469;-83
2021/03/22 08:08:48;;;;;;;13.55;2.30;;;6.30;93.70;;;;;;5015238;28;20076;-81
2021/03/22 08:11:37;;;;;;;8.20;1.70;;;6.40;93.70;;;;;;5014294;28;20029;-81
2021/03/22 08:14:42;;;;;;;12.15;1.75;;;6.50;93.50;;;;;;5024356;28;20091;-81
2021/03/22 08:17:33;;;;;;;13.55;1.73;;;6.50;93.40;;;;;;5022395;28;20087;-83
2021/03/22 08:20:26;;;;;;;13.52;2.22;;;6.60;93.30;;;;;;5022599;28;20040;-82
2021/03/22 08:23:22;;;;;;;9.60;1.73;;;6.70;93.30;;;;;;5021803;28;20037;-82
2021/03/22 08:25:50;;;;;;;16.63;2.10;;;6.70;93.00;;;;;;5019579;28;20069;-82
2021/03/22 08:28:39;;;;;;;9.30;2.05;;;6.80;93.10;;;;;;5006061;28;20026;-82
2021/03/22 08:31:24;;;;;;;5.80;1.48;;;6.90;93.00;;;;;;4992450;28;20159;-83
2021/03/22 08:34:00;;;;;;;9.23;2.33;;;6.90;92.80;;;;;;5020638;28;20041;-84
2021/03/22 08:36:36;;;;;;;12.55;1.60;;;6.90;92.80;;;;;;5036014;28;20053;-83
2021/03/22 08:39:17;;;;;;;11.50;1.55;;;7.00;92.40;;;;;;5031426;28;20389;-83
2021/03/22 08:41:54;;;;;;;6.72;1.50;;;7.00;92.20;;;;;;5025026;28;20398;-83
2021/03/22 08:44:43;;;;;;;4.85;1.35;;;7.00;92.30;;;;;;5037671;28;20033;-83
2021/03/22 08:47:43;;;;;;;12.68;2.17;;;7.10;92.20;;;;;;5029917;28;20030;-83
2021/03/22 08:50:12;;;;;;;16.33;1.95;;;7.20;92.10;;;;;;5026740;28;20307;-83
2021/03/22 08:52:59;;;;;;;9.32;1.83;;;7.20;92.20;;;;;;5026385;28;20026;-83
2021/03/22 08:55:50;;;;;;;13.13;1.90;;;7.20;92.00;;;;;;5034204;28;20045;-83
2021/03/22 08:58:31;;;;;;;8.57;1.70;;;7.10;92.00;;;;;;5026886;28;20480;-83
2021/03/22 09:01:23;;;;;;;11.05;1.63;;;7.10;92.10;;;;;;5032368;28;20034;-83
2021/03/22 09:03:52;;;;;;;9.55;2.03;;;7.00;91.90;;;;;;5019056;28;20037;-83
2021/03/22 09:06:26;;;;;;;11.80;1.80;;;6.90;91.90;;;;;;5035212;28;20527;-83
2021/03/22 09:08:55;;;;;;;11.18;1.85;;;6.90;91.70;;;;;;5033925;28;20088;-83
2021/03/22 09:11:27;;;;;;;10.65;2.00;;;6.70;91.80;;;;;;5033221;28;20033;-83
2021/03/22 09:13:55;;;;;;;10.57;2.08;;;6.70;91.50;;;;;;5027333;28;20258;-83
2021/03/22 09:16:24;;;;;;;10.27;1.83;;;6.60;91.50;;;;;;5029031;28;20038;-83
2021/03/22 09:19:05;;;;;;;10.82;2.13;;;6.50;91.50;;;;;;5025850;28;20117;-83
2021/03/22 09:21:32;;;;;;;9.50;2.13;;;6.50;91.40;;;;;;5026212;28;20030;-83
2021/03/22 09:23:58;;;;;;;14.32;2.08;;;6.50;91.70;;;;;;5032404;28;20442;-83
2021/03/22 09:26:58;;;;;;;12.95;2.28;;;6.50;91.70;;;;;;5019515;28;20041;-83
2021/03/22 09:29:31;;;;;;;5.70;1.58;;;6.50;91.70;;;;;;5031137;28;20554;-83
2021/03/22 09:31:58;;;;;;;11.57;2.13;;;6.60;91.80;;;;;;5031867;28;20527;-83
2021/03/22 09:34:42;;;;;;;11.70;1.50;;;6.60;91.80;;;;;;5019972;28;20052;-83
2021/03/22 09:37:42;;;;;;;13.05;2.03;;;6.60;91.50;;;;;;5026672;28;20467;-82
2021/03/22 09:40:29;;;;;;;7.93;1.77;;;6.70;91.70;;;;;;5027529;28;20030;-83
2021/03/22 09:43:10;;;;;;;11.77;2.00;;;6.70;91.60;;;;;;5024131;28;20488;-82
2021/03/22 09:45:52;;;;;;;10.38;1.63;;;6.70;91.70;;;;;;5026486;28;21263;-83
2021/03/22 09:48:21;;;;;;;8.02;1.70;;;6.80;91.80;;;;;;5024530;28;20037;-83
2021/03/22 09:51:12;;;;;;;13.38;2.25;;;6.90;91.70;;;;;;5025979;28;20049;-83
2021/03/22 09:54:01;;;;;;;6.10;1.77;;;7.00;91.60;;;;;;5027818;28;20037;-83
2021/03/22 09:56:41;;;;;;;8.75;1.42;;;7.10;91.60;;;;;;5027812;28;20044;-83
2021/03/22 09:59:21;;;;;;;5.55;1.33;;;7.20;91.50;;;;;;5032965;28;20491;-82
2021/03/22 10:01:47;;;;;;;8.20;1.42;;;7.40;91.40;;;;;;5030908;28;20052;-83
2021/03/22 10:04:15;;;;;;;6.38;1.45;;;7.50;91.40;;;;;;5018761;28;20043;-83
2021/03/22 10:06:41;;;;;;;10.07;1.90;;;7.60;91.30;;;;;;5027789;28;20029;-83
2021/03/22 10:09:27;;;;;;;18.73;1.77;;;7.70;91.00;;;;;;5025843;28;20393;-83
2021/03/22 10:11:56;;;;;;;6.05;1.17;;;7.80;90.90;;;;;;5028103;28;20377;-83
2021/03/22 10:14:35;;;;;;;5.80;1.50;;;7.80;90.60;;;;;;5029132;28;20033;-83
2021/03/22 10:17:03;;;;;;;8.98;1.77;;;7.80;90.50;;;;;;5025813;28;20037;-83
2021/03/22 10:19:35;;;;;;;11.50;1.85;;;7.80;90.60;;;;;;4994865;28;20106;-83
2021/03/22 10:22:14;;;;;;;5.30;1.60;;;7.70;90.50;;;;;;5026217;28;20582;-82
2021/03/22 10:25:08;;;;;;;10.68;1.90;;;7.60;90.40;;;;;;5023730;28;20034;-83
2021/03/22 10:27:37;;;;;;;10.65;1.85;;;7.60;90.50;;;;;;5011811;28;20099;-83
2021/03/22 10:30:09;;;;;;;9.05;1.90;;;7.50;90.50;;;;;;5026991;28;20088;-83
2021/03/22 10:32:35;;;;;;;14.07;1.70;;;7.50;90.60;;;;;;5012117;28;20045;-82
2021/03/22 10:35:38;;;;;;;6.05;1.40;;;7.60;90.50;;;;;;5013408;28;20067;-83
2021/03/22 10:38:05;;;;;;;9.50;1.55;;;7.60;90.30;;;;;;5025281;28;20128;-83
2021/03/22 10:40:37;;;;;;;5.68;1.02;;;7.60;90.50;;;;;;5011342;28;20049;-82
2021/03/22 10:43:04;;;;;;;12.77;1.77;;;7.60;90.30;;;;;;5026984;28;20440;-83
2021/03/22 10:45:35;;;;;;;13.10;1.65;;;7.70;90.20;;;;;;5026237;28;20041;-83
2021/03/22 10:48:20;;;;;;;7.53;1.15;;;7.70;89.90;;;;;;5031738;28;20128;-82
2021/03/22 10:50:46;;;;;;;6.50;1.30;;;7.80;89.50;;;;;;5032512;28;20038;-83
2021/03/22 10:53:17;;;;;;;10.13;1.10;;;7.80;89.60;;;;;;5011669;28;20475;-83
2021/03/22 10:55:45;;;;;;;6.97;1.25;;;8.00;89.70;;;;;;5011701;28;20143;-83
2021/03/22 10:58:26;;;;;;;9.07;1.27;;;8.20;89.40;;;;;;5036652;28;20029;-83
2021/03/22 11:01:06;;;;;;;6.40;1.30;;;8.30;88.80;;;;;;5033684;28;20106;-83
2021/03/22 11:03:34;;;;;;;6.47;1.40;;;8.40;86.00;;;;;;5033564;28;20100;-83
2021/03/22 11:06:08;;;;;;;6.35;1.33;;;8.40;86.80;;;;;;5005137;28;20046;-83
2021/03/22 11:08:38;;;;;;;10.27;1.27;;;8.50;86.80;;;;;;5034741;28;20156;-83
2021/03/22 11:11:17;;;;;;;7.57;1.27;;;8.70;87.40;;;;;;5028217;28;20029;-83
2021/03/22 11:13:49;;;;;;;8.88;1.40;;;8.80;87.00;;;;;;5016927;28;20049;-82
2021/03/22 11:16:31;;;;;;;10.77;2.10;;;8.90;87.00;;;;;;5032285;28;20037;-83
2021/03/22 11:18:59;;;;;;;8.10;1.53;;;8.90;86.00;;;;;;5032494;28;20162;-83
2021/03/22 11:21:26;;;;;;;9.95;1.42;;;8.90;86.20;;;;;;5030687;28;20068;-83
2021/03/22 11:23:55;;;;;;;10.90;1.35;;;8.90;84.60;;;;;;5011860;28;20045;-83
2021/03/22 11:26:29;;;;;;;5.53;1.30;;;8.90;84.80;;;;;;5024225;28;20034;-83
2021/03/22 11:29:18;;;;;;;5.28;1.23;;;8.90;83.90;;;;;;5024703;28;20481;-82
2021/03/22 11:31:46;;;;;;;6.35;1.20;;;9.00;84.10;;;;;;5027060;28;20055;-83
2021/03/22 11:34:27;;;;;;;7.63;1.48;;;9.10;84.10;;;;;;5029866;28;20041;-83
2021/03/22 11:37:23;;;;;;;8.20;1.30;;;9.20;83.10;;;;;;5020418;28;20529;-83
2021/03/22 11:40:06;;;;;;;8.38;1.52;;;9.30;83.10;;;;;;5024424;28;20041;-83
2021/03/22 11:42:54;;;;;;;6.63;1.30;;;9.30;82.20;;;;;;5033249;28;20447;-83
2021/03/22 11:45:28;;;;;;;5.03;1.30;;;9.20;82.50;;;;;;5028129;28;20074;-82
2021/03/22 11:47:54;;;;;;;6.28;1.67;;;9.20;82.70;;;;;;5028601;28;20036;-83
2021/03/22 11:50:34;;;;;;;8.23;1.05;;;9.20;82.60;;;;;;5027102;28;20075;-84
2021/03/22 11:53:07;;;;;;;6.00;1.17;;;9.10;81.60;;;;;;5027372;28;20030;-83
2021/03/22 11:55:43;;;;;;;3.15;1.10;;;9.20;81.40;;;;;;5023710;28;20038;-83
2021/03/22 11:58:27;;;;;;;3.20;1.10;;;9.20;80.30;;;;;;5033817;28;20029;-83
2021/03/22 12:00:54;;;;;;;7.70;1.27;;;9.30;79.50;;;;;;5027503;28;20049;-83
2021/03/22 12:03:31;;;;;;;5.25;1.17;;;9.20;78.80;;;;;;5030574;28;20068;-83
2021/03/22 12:06:12;;;;;;;6.18;1.05;;;9.10;76.40;;;;;;5027366;28;20064;-83
2021/03/22 12:08:48;;;;;;;7.32;1.30;;;9.00;75.90;;;;;;5023340;28;20041;-83
2021/03/22 12:11:18;;;;;;;6.72;1.10;;;9.00;76.70;;;;;;5026603;28;20116;-83
2021/03/22 12:13:47;;;;;;;9.32;1.65;;;9.10;77.30;;;;;;5029826;28;20033;-83
2021/03/22 12:16:20;;;;;;;10.05;1.33;;;9.10;76.70;;;;;;5027893;28;20097;-84
2021/03/22 12:18:48;;;;;;;4.90;1.13;;;9.20;76.90;;;;;;5028013;28;20045;-83
2021/03/22 12:21:15;;;;;;;5.57;1.20;;;9.20;77.00;;;;;;5014481;28;20425;-83
2021/03/22 12:23:41;;;;;;;5.97;1.10;;;9.20;76.70;;;;;;5030058;28;20040;-83
2021/03/22 12:26:10;;;;;;;6.90;1.52;;;9.20;76.70;;;;;;5025758;28;20049;-83
2021/03/22 12:28:53;;;;;;;5.55;1.50;;;9.20;75.90;;;;;;5025114;28;20307;-83
2021/03/22 12:31:21;;;;;;;9.68;1.20;;;9.10;75.90;;;;;;4991530;28;20472;-83
2021/03/22 12:33:47;;;;;;;5.35;1.30;;;9.10;76.70;;;;;;5027346;28;20092;-83
2021/03/22 12:36:13;;;;;;;5.95;0.88;;;9.20;76.60;;;;;;5021178;28;20124;-83
2021/03/22 12:38:39;;;;;;;6.68;1.17;;;9.30;75.60;;;;;;5012053;28;20492;-83
2021/03/22 12:41:06;;;;;;;5.95;1.10;;;9.30;75.90;;;;;;5026015;28;20160;-83
2021/03/22 12:43:34;;;;;;;8.73;1.50;;;9.30;74.70;;;;;;5027859;28;20111;-83
2021/03/22 12:46:00;;;;;;;7.75;1.30;;;9.30;75.10;;;;;;5008739;28;20523;-85
2021/03/22 12:48:26;;;;;;;7.85;1.10;;;9.40;75.20;;;;;;5029092;28;20057;-83
2021/03/22 12:50:52;;;;;;;8.10;1.00;;;9.30;74.30;;;;;;5010723;28;20495;-83
2021/03/22 12:53:19;;;;;;;8.60;1.30;;;9.30;73.80;;;;;;5007823;28;20040;-84
2021/03/22 12:55:45;;;;;;;8.07;1.20;;;9.20;74.60;;;;;;5031903;28;20138;-83
2021/03/22 12:58:22;;;;;;;5.40;1.33;;;9.20;74.60;;;;;;5028930;28;20037;-83
2021/03/22 13:00:50;;;;;;;7.00;1.00;;;9.10;73.30;;;;;;5029302;28;20037;-83
2021/03/22 13:03:22;;;;;;;6.68;1.00;;;9.10;74.20;;;;;;5026321;28;20476;-83
2021/03/22 13:05:50;;;;;;;6.15;1.05;;;9.10;73.90;;;;;;5030796;28;20073;-83
2021/03/22 13:08:16;;;;;;;5.88;1.02;;;9.00;74.60;;;;;;5029507;28;20399;-81
2021/03/22 13:10:42;;;;;;;10.10;1.52;;;9.00;74.60;;;;;;4996168;28;20025;-83
2021/03/22 13:13:08;;;;;;;7.03;1.00;;;8.90;73.70;;;;;;4980647;28;20063;-83
2021/03/22 13:15:44;;;;;;;7.40;1.70;;;8.90;74.50;;;;;;5011771;28;20042;-83
2021/03/22 13:18:15;;;;;;;6.18;1.20;;;8.90;74.90;;;;;;5024324;28;20033;-83
2021/03/22 13:20:42;;;;;;;9.90;1.50;;;8.90;75.10;;;;;;5027053;28;20076;-83
2021/03/22 13:23:09;;;;;;;7.07;0.90;;;8.90;75.20;;;;;;5030914;28;20061;-81
2021/03/22 13:25:36;;;;;;;4.85;1.00;;;8.90;75.30;;;;;;4984456;28;20038;-82